Lulu Pass Weather Station

This weather station provides temperature, relative humidity (RH), wind speed, gust or max wind speed, and wind direction at 10014ft near Lulu Pass at the head of Fisher Creek. This data can be used with temperature and precipitation data from the Fisher Creek SNOTEL site.

This weather station was purchased by the Friends of the Avalanche Center.

If the data has not been updated recently you can view it directly on datagarrison.com

Elevation
10014ft
Jump to table bottom
Date Time Temperature
deg F
RH, % Wind Speed Wind Gust Wind Direction
03/03/21 13:00 26.6 48 7 15 SW - 229
03/03/21 12:00 25.0 50 8 16 SW - 223
03/03/21 11:00 22.5 54 7 14 SW - 229
03/03/21 10:00 21.0 59 7 13 SW - 227
03/03/21 09:00 18.5 65 4 11 NW - 330
03/03/21 08:00 15.7 74 8 17 SW - 234
03/03/21 07:00 14.8 78 6 17 W - 271
03/03/21 06:00 14.8 79 9 17 SW - 247
03/03/21 05:00 14.3 81 8 18 W - 248
03/03/21 04:00 15.5 78 10 20 SW - 239
03/03/21 03:00 15.4 79 10 20 SW - 233
03/03/21 02:00 16.3 75 8 22 W - 257
03/03/21 01:00 16.2 75 9 20 W - 268
03/03/21 00:00 15.1 75 14 22 NW - 337
03/02/21 23:00 15.8 75 13 27 NW - 300
03/02/21 22:00 17.1 72 14 28 W - 270
03/02/21 21:00 17.3 72 14 33 W - 278
03/02/21 20:00 17.7 72 12 27 W - 250
03/02/21 19:00 18.4 73 14 31 SW - 239
03/02/21 18:00 19.9 74 14 35 SW - 237
03/02/21 17:00 21.5 71 18 33 SW - 233
03/02/21 16:00 21.7 71 18 35 SW - 236
03/02/21 15:00 23.5 70 18 35 SW - 233
03/02/21 14:00 22.0 72 15 37 SW - 241
03/02/21 13:00 22.2 76 9 22 W - 268
03/02/21 12:00 19.1 85 13 27 W - 256
03/02/21 11:00 16.5 93 10 23 W - 250
03/02/21 10:00 14.0 93 12 22 SW - 218
03/02/21 09:00 12.6 93 8 17 SW - 234
03/02/21 08:00 11.5 94 7 15 W - 291
03/02/21 07:00 11.0 93 7 15 W - 284
03/02/21 06:00 12.1 94 7 17 W - 271
03/02/21 05:00 11.6 94 8 17 W - 257
03/02/21 04:00 11.7 94 8 17 W - 282
03/02/21 03:00 12.3 95 8 18 W - 284
03/02/21 02:00 13.0 94 10 23 NW - 295
03/02/21 01:00 13.6 94 13 28 SW - 243
03/02/21 00:00 15.7 90 13 27 SW - 223
03/01/21 23:00 17.2 87 12 24 SW - 215
03/01/21 22:00 17.9 86 14 26 SW - 209
03/01/21 21:00 19.6 83 17 31 SW - 211
03/01/21 20:00 19.8 83 14 27 SW - 215
03/01/21 19:00 21.4 84 16 30 SW - 212
03/01/21 18:00 22.0 89 10 23 SW - 222
03/01/21 17:00 23.8 93 7 18 W - 265
03/01/21 16:00 24.8 93 7 15 W - 257
03/01/21 15:00 26.4 98 4 12 W - 282
03/01/21 14:00 25.8 96 5 14 SW - 213
03/01/21 13:00 22.7 96 7 20 S - 194
03/01/21 12:00 21.7 95 6 12 SW - 209